createdAt,value
2022-10-20T00:00:21.196Z,10.94
2022-10-20T00:01:21.172Z,11.03
2022-10-20T00:02:21.249Z,11.07
2022-10-20T00:03:21.141Z,11.10
2022-10-20T00:04:21.102Z,11.06
2022-10-20T00:05:21.081Z,11.06
2022-10-20T00:06:21.057Z,11.11
2022-10-20T00:07:21.032Z,11.17
2022-10-20T00:08:21.009Z,11.06
2022-10-20T00:09:20.987Z,11.14
2022-10-20T00:10:20.960Z,11.20
2022-10-20T00:11:20.938Z,11.19
2022-10-20T00:12:20.912Z,11.21
2022-10-20T00:13:20.887Z,11.06
2022-10-20T00:14:20.865Z,11.10
2022-10-20T00:15:20.840Z,10.94
2022-10-20T00:16:20.821Z,10.91
2022-10-20T00:17:20.819Z,10.83
2022-10-20T00:18:20.773Z,10.78
2022-10-20T00:19:20.750Z,10.66
2022-10-20T00:20:20.769Z,10.63
2022-10-20T00:21:20.737Z,10.78
2022-10-20T00:22:20.690Z,10.99
2022-10-20T00:23:20.686Z,10.94
2022-10-20T00:24:20.632Z,10.86
2022-10-20T00:25:20.601Z,10.66
2022-10-20T00:26:20.578Z,10.66
2022-10-20T00:27:20.555Z,10.77
2022-10-20T00:28:20.540Z,10.66
2022-10-20T00:29:20.514Z,10.81
2022-10-20T00:30:22.522Z,10.68
2022-10-20T00:31:20.462Z,10.66
2022-10-20T00:32:20.466Z,10.60
2022-10-20T00:33:20.411Z,10.52
2022-10-20T00:34:20.395Z,10.47
2022-10-20T00:35:20.375Z,10.44
2022-10-20T00:36:20.345Z,10.33
2022-10-20T00:37:20.316Z,10.56
2022-10-20T00:38:20.314Z,10.62
2022-10-20T00:39:20.274Z,10.71
2022-10-20T00:40:20.252Z,10.66
2022-10-20T00:41:20.224Z,10.63
2022-10-20T00:42:20.197Z,10.52
2022-10-20T00:43:20.175Z,10.47
2022-10-20T00:44:20.151Z,10.51
2022-10-20T00:45:20.126Z,10.53
2022-10-20T00:46:20.110Z,10.47
2022-10-20T00:47:20.099Z,10.56
2022-10-20T00:48:20.054Z,10.62
2022-10-20T00:49:20.035Z,10.60
2022-10-20T00:50:20.018Z,10.66
2022-10-20T00:51:19.990Z,10.73
2022-10-20T00:52:19.969Z,10.80
2022-10-20T00:53:19.937Z,10.78
2022-10-20T00:54:19.933Z,10.89
2022-10-20T00:55:19.894Z,10.92
2022-10-20T00:56:19.864Z,10.88
2022-10-20T00:57:19.842Z,10.86
2022-10-20T00:58:19.816Z,10.91
2022-10-20T00:59:19.796Z,11.01
2022-10-20T01:00:19.786Z,10.99
2022-10-20T01:01:19.838Z,11.01
2022-10-20T01:02:19.734Z,10.96
2022-10-20T01:03:19.695Z,10.98
2022-10-20T01:04:19.676Z,10.99
2022-10-20T01:05:19.651Z,10.99
2022-10-20T01:06:19.636Z,10.94
2022-10-20T01:07:19.600Z,10.83
2022-10-20T01:08:19.579Z,10.86
2022-10-20T01:09:19.556Z,10.78
2022-10-20T01:10:19.537Z,10.84
2022-10-20T01:11:19.509Z,10.88
2022-10-20T01:12:19.491Z,10.77
2022-10-20T01:13:19.455Z,10.83
2022-10-20T01:14:19.439Z,10.83
2022-10-20T01:15:19.431Z,10.83
2022-10-20T01:16:19.392Z,10.89
2022-10-20T01:17:19.397Z,10.91
2022-10-20T01:18:19.340Z,10.94
2022-10-20T01:19:19.315Z,10.96
2022-10-20T01:20:19.291Z,10.83
2022-10-20T01:21:19.274Z,10.86
2022-10-20T01:22:19.242Z,10.86
2022-10-20T01:23:19.221Z,10.83
2022-10-20T01:24:19.243Z,10.99
2022-10-20T01:25:19.179Z,10.96
2022-10-20T01:26:19.169Z,10.99
2022-10-20T01:27:19.128Z,11.01
2022-10-20T01:28:19.104Z,10.96
2022-10-20T01:29:19.082Z,10.84
2022-10-20T01:30:19.064Z,10.80
2022-10-20T01:31:19.064Z,10.81
2022-10-20T01:32:19.009Z,10.95
2022-10-20T01:33:19.010Z,10.94
2022-10-20T01:34:18.957Z,10.88
2022-10-20T01:35:18.940Z,10.81
2022-10-20T01:36:18.909Z,10.81
2022-10-20T01:37:28.396Z,10.88
2022-10-20T01:38:18.867Z,10.94
2022-10-20T01:39:18.840Z,11.01
2022-10-20T01:40:18.822Z,11.03
2022-10-20T01:41:18.797Z,10.96
2022-10-20T01:42:18.765Z,10.95
2022-10-20T01:43:18.743Z,10.83
2022-10-20T01:44:18.725Z,10.81
2022-10-20T01:45:18.698Z,10.81
2022-10-20T01:46:18.671Z,10.81
2022-10-20T01:47:18.654Z,10.66
2022-10-20T01:48:18.627Z,10.63
2022-10-20T01:49:18.603Z,10.71
2022-10-20T01:50:18.578Z,10.63
2022-10-20T01:51:18.549Z,10.59
2022-10-20T01:52:18.545Z,10.59
2022-10-20T01:53:18.508Z,10.63
2022-10-20T01:54:18.486Z,10.68
2022-10-20T01:55:18.456Z,10.60
2022-10-20T01:56:18.438Z,10.60
2022-10-20T01:57:18.407Z,10.65
2022-10-20T01:58:18.388Z,10.68
2022-10-20T01:59:18.362Z,10.68
2022-10-20T02:00:18.528Z,10.84
2022-10-20T02:01:18.437Z,10.88
2022-10-20T02:02:18.289Z,10.86
2022-10-20T02:03:18.267Z,10.84
2022-10-20T02:04:18.256Z,10.80
2022-10-20T02:05:18.232Z,10.77
2022-10-20T02:06:18.213Z,10.81
2022-10-20T02:07:18.181Z,10.76
2022-10-20T02:08:18.146Z,10.73
2022-10-20T02:09:18.123Z,10.68
2022-10-20T02:10:18.102Z,10.55
2022-10-20T02:11:18.086Z,10.43
2022-10-20T02:12:18.052Z,10.37
2022-10-20T02:13:18.023Z,10.28
2022-10-20T02:14:18.004Z,10.24
2022-10-20T02:15:17.978Z,10.15
2022-10-20T02:16:17.977Z,10.14
2022-10-20T02:17:17.947Z,10.18
2022-10-20T02:18:17.914Z,10.15
2022-10-20T02:19:17.885Z,10.24
2022-10-20T02:20:17.862Z,10.17
2022-10-20T02:21:17.843Z,10.07
2022-10-20T02:22:17.807Z,10.18
2022-10-20T02:23:17.802Z,10.07
2022-10-20T02:24:17.763Z,10.14
2022-10-20T02:25:17.755Z,10.17
2022-10-20T02:26:17.774Z,10.14
2022-10-20T02:27:17.695Z,10.24
2022-10-20T02:28:17.677Z,10.21
2022-10-20T02:29:17.670Z,10.36
2022-10-20T02:30:17.633Z,10.34
2022-10-20T02:31:17.599Z,10.46
2022-10-20T02:32:17.571Z,10.37
2022-10-20T02:33:17.561Z,10.30
2022-10-20T02:34:17.542Z,10.28
2022-10-20T02:35:17.501Z,10.24
2022-10-20T02:36:17.483Z,10.22
2022-10-20T02:38:17.457Z,10.36
2022-10-20T02:39:17.409Z,10.37
2022-10-20T02:40:17.386Z,10.33
2022-10-20T02:41:17.357Z,10.33
2022-10-20T02:42:17.339Z,10.30
2022-10-20T02:43:17.308Z,10.33
2022-10-20T02:44:17.286Z,10.25
2022-10-20T02:45:17.271Z,10.17
2022-10-20T02:46:17.529Z,10.25
2022-10-20T02:47:17.227Z,10.24
2022-10-20T02:48:17.196Z,10.33
2022-10-20T02:49:17.163Z,10.18
2022-10-20T02:50:17.151Z,10.22
2022-10-20T02:51:17.114Z,10.10
2022-10-20T02:52:17.097Z,10.32
2022-10-20T02:53:17.071Z,10.37
2022-10-20T02:54:17.056Z,10.44
2022-10-20T02:56:16.995Z,10.47
2022-10-20T02:57:16.987Z,10.56
2022-10-20T02:58:16.955Z,10.37
2022-10-20T02:59:16.927Z,10.51
2022-10-20T03:00:16.901Z,10.46
2022-10-20T03:01:16.929Z,10.56
2022-10-20T03:02:16.854Z,10.53
2022-10-20T03:03:17.026Z,10.56
2022-10-20T03:04:16.857Z,10.56
2022-10-20T03:05:16.778Z,10.51
2022-10-20T03:06:16.768Z,10.47
2022-10-20T03:07:16.732Z,10.46
2022-10-20T03:08:16.713Z,10.58
2022-10-20T03:09:16.695Z,10.51
2022-10-20T03:10:16.667Z,10.59
2022-10-20T03:11:16.645Z,10.55
2022-10-20T03:12:16.640Z,10.59
2022-10-20T03:13:16.655Z,10.58
2022-10-20T03:14:16.579Z,10.55
2022-10-20T03:15:16.553Z,10.53
2022-10-20T03:16:16.518Z,10.56
2022-10-20T03:17:16.504Z,10.53
2022-10-20T03:18:16.470Z,10.58
2022-10-20T03:19:16.443Z,10.63
2022-10-20T03:20:16.421Z,10.68
2022-10-20T03:21:16.395Z,10.63
2022-10-20T03:22:16.428Z,10.70
2022-10-20T03:23:19.249Z,10.78
2022-10-20T03:24:16.323Z,10.74
2022-10-20T03:25:16.309Z,10.81
2022-10-20T03:26:16.278Z,10.83
2022-10-20T03:27:16.249Z,10.91
2022-10-20T03:28:16.232Z,10.84
2022-10-20T03:29:16.208Z,10.77
2022-10-20T03:30:16.186Z,10.76
2022-10-20T03:31:16.159Z,10.76
2022-10-20T03:32:16.141Z,10.65
2022-10-20T03:33:16.109Z,10.68
2022-10-20T03:34:16.087Z,10.66
2022-10-20T03:35:16.062Z,10.56
2022-10-20T03:36:16.051Z,10.71
2022-10-20T03:37:16.024Z,10.70
2022-10-20T03:38:15.999Z,10.71
2022-10-20T03:39:15.974Z,10.71
2022-10-20T03:40:15.951Z,10.63
2022-10-20T03:41:15.921Z,10.71
2022-10-20T03:42:15.896Z,10.66
2022-10-20T03:43:15.868Z,10.70
2022-10-20T03:44:15.851Z,10.65
2022-10-20T03:45:18.525Z,10.62
2022-10-20T03:46:15.804Z,10.63
2022-10-20T03:47:15.781Z,10.63
2022-10-20T03:48:15.755Z,10.65
2022-10-20T03:49:15.736Z,10.66
2022-10-20T03:50:15.708Z,10.66
2022-10-20T03:51:15.687Z,10.63
2022-10-20T03:52:15.675Z,10.62
2022-10-20T03:53:15.634Z,10.62
2022-10-20T03:54:15.613Z,10.59
2022-10-20T03:55:15.586Z,10.51
2022-10-20T03:56:15.587Z,10.52
2022-10-20T03:57:15.543Z,10.52
2022-10-20T03:58:15.519Z,10.55
2022-10-20T03:59:15.489Z,10.53
2022-10-20T04:00:15.468Z,10.47
2022-10-20T04:01:15.510Z,10.56
2022-10-20T04:02:15.427Z,10.59
2022-10-20T04:03:15.398Z,10.59
2022-10-20T04:04:15.372Z,10.55
2022-10-20T04:05:15.343Z,10.58
2022-10-20T04:06:15.335Z,10.62
2022-10-20T04:07:15.298Z,10.55
2022-10-20T04:09:15.261Z,10.46
2022-10-20T04:10:15.241Z,10.32
2022-10-20T04:11:15.211Z,10.32
2022-10-20T04:12:15.183Z,10.26
2022-10-20T04:13:15.156Z,10.33
2022-10-20T04:14:15.133Z,10.32
2022-10-20T04:15:15.104Z,10.32
2022-10-20T04:16:15.120Z,10.33
2022-10-20T04:17:15.069Z,10.34
2022-10-20T04:18:15.047Z,10.36
2022-10-20T04:19:15.014Z,10.34
2022-10-20T04:20:14.991Z,10.37
2022-10-20T04:21:14.963Z,10.34
2022-10-20T04:22:14.942Z,10.36
2022-10-20T04:23:14.932Z,10.36
2022-10-20T04:24:15.084Z,10.28
2022-10-20T04:25:15.008Z,10.34
2022-10-20T04:26:14.998Z,10.19
2022-10-20T04:27:14.829Z,10.37
2022-10-20T04:28:14.916Z,10.34
2022-10-20T04:29:14.932Z,10.39
2022-10-20T04:30:14.809Z,10.42
2022-10-20T04:31:14.746Z,10.43
2022-10-20T04:32:14.710Z,10.42
2022-10-20T04:33:14.681Z,10.44
2022-10-20T04:34:14.655Z,10.55
2022-10-20T04:35:14.634Z,10.53
2022-10-20T04:36:14.608Z,10.53
2022-10-20T04:37:14.593Z,10.56
2022-10-20T04:38:14.588Z,10.62
2022-10-20T04:39:14.534Z,10.73
2022-10-20T04:40:14.513Z,10.78
2022-10-20T04:41:14.490Z,10.84
2022-10-20T04:42:14.464Z,10.81
2022-10-20T04:43:14.450Z,10.84
2022-10-20T04:44:14.425Z,10.91
2022-10-20T04:45:14.387Z,10.91
2022-10-20T04:46:14.374Z,10.83
2022-10-20T04:47:14.344Z,10.71
2022-10-20T04:48:14.321Z,10.74
2022-10-20T04:49:14.297Z,10.73
2022-10-20T04:50:14.282Z,10.78
2022-10-20T04:51:14.248Z,10.80
2022-10-20T04:52:14.225Z,10.80
2022-10-20T04:53:14.201Z,10.76
2022-10-20T04:54:14.212Z,10.66
2022-10-20T04:55:14.150Z,10.74
2022-10-20T04:56:14.133Z,10.76
2022-10-20T04:57:14.101Z,10.73
2022-10-20T04:58:14.080Z,10.71
2022-10-20T04:59:14.056Z,10.68
2022-10-20T05:00:14.037Z,10.74
2022-10-20T05:01:14.052Z,10.70
2022-10-20T05:02:14.044Z,10.66
2022-10-20T05:03:13.964Z,10.63
2022-10-20T05:04:13.956Z,10.68
2022-10-20T05:05:13.912Z,10.58
2022-10-20T05:06:13.890Z,10.59
2022-10-20T05:07:13.870Z,10.68
2022-10-20T05:08:13.842Z,10.66
2022-10-20T05:09:13.848Z,10.63
2022-10-20T05:10:13.799Z,10.74
2022-10-20T05:11:13.768Z,10.77
2022-10-20T05:13:13.735Z,10.74
2022-10-20T05:14:13.701Z,10.60
2022-10-20T05:15:13.672Z,10.71
2022-10-20T05:16:13.659Z,10.70
2022-10-20T05:17:13.674Z,10.70
2022-10-20T05:18:13.606Z,10.66
2022-10-20T05:19:13.585Z,10.66
2022-10-20T05:20:13.559Z,10.70
2022-10-20T05:21:13.530Z,10.62
2022-10-20T05:22:13.515Z,10.63
2022-10-20T05:23:13.483Z,10.63
2022-10-20T05:24:16.747Z,10.65
2022-10-20T05:25:35.058Z,10.62
2022-10-20T05:26:13.419Z,10.66
2022-10-20T05:27:13.392Z,10.62
2022-10-20T05:28:13.376Z,10.63
2022-10-20T05:29:13.355Z,10.65
2022-10-20T05:30:13.321Z,10.66
2022-10-20T05:31:13.300Z,10.62
2022-10-20T05:32:13.279Z,10.59
2022-10-20T05:33:13.251Z,10.56
2022-10-20T05:34:13.227Z,10.60
2022-10-20T05:35:13.206Z,10.66
2022-10-20T05:36:15.888Z,10.77
2022-10-20T05:37:13.153Z,10.78
2022-10-20T05:38:13.133Z,10.78
2022-10-20T05:39:13.105Z,10.83
2022-10-20T05:40:13.087Z,10.86
2022-10-20T05:41:13.065Z,10.88
2022-10-20T05:42:13.037Z,10.94
2022-10-20T05:43:14.116Z,10.95
2022-10-20T05:44:12.987Z,10.91
2022-10-20T05:45:12.962Z,11.03
2022-10-20T05:46:12.940Z,11.03
2022-10-20T05:47:12.948Z,11.01
2022-10-20T05:48:12.924Z,11.02
2022-10-20T05:49:12.869Z,11.01
2022-10-20T05:50:12.842Z,10.99
2022-10-20T05:51:14.849Z,11.01
2022-10-20T05:52:12.797Z,11.02
2022-10-20T05:53:12.793Z,10.96
2022-10-20T05:54:12.757Z,10.99
2022-10-20T05:55:12.745Z,11.03
2022-10-20T05:56:12.711Z,10.94
2022-10-20T05:57:12.672Z,11.01
2022-10-20T05:58:12.652Z,11.10
2022-10-20T05:59:12.629Z,10.98
2022-10-20T06:00:12.611Z,11.01
2022-10-20T06:01:12.578Z,10.92
2022-10-20T06:02:12.565Z,10.99
2022-10-20T06:03:16.074Z,11.13
2022-10-20T06:04:12.511Z,11.06
2022-10-20T06:05:12.492Z,11.02
2022-10-20T06:06:12.462Z,11.02
2022-10-20T06:07:12.448Z,11.09
2022-10-20T06:08:12.418Z,11.01
2022-10-20T06:09:12.397Z,11.01
2022-10-20T06:10:12.377Z,11.19
2022-10-20T06:11:12.345Z,11.13
2022-10-20T06:12:12.337Z,11.10
2022-10-20T06:13:12.298Z,11.11
2022-10-20T06:14:12.271Z,11.14
2022-10-20T06:15:12.253Z,11.10
2022-10-20T06:16:12.227Z,11.03
2022-10-20T06:17:12.204Z,11.02
2022-10-20T06:18:12.247Z,11.09
2022-10-20T06:19:12.165Z,11.11
2022-10-20T06:20:12.139Z,11.02
2022-10-20T06:21:12.158Z,11.02
2022-10-20T06:22:12.081Z,11.17
2022-10-20T06:23:12.064Z,11.13
2022-10-20T06:24:12.035Z,11.24
2022-10-20T06:25:12.020Z,11.11
2022-10-20T06:26:12.000Z,11.11
2022-10-20T06:27:11.994Z,11.19
2022-10-20T06:28:11.946Z,11.24
2022-10-20T06:29:11.918Z,11.27
2022-10-20T06:30:11.907Z,11.29
2022-10-20T06:31:11.878Z,11.28
2022-10-20T06:32:11.849Z,11.24
2022-10-20T06:33:11.830Z,11.25
2022-10-20T06:34:11.808Z,11.32
2022-10-20T06:35:11.781Z,11.29
2022-10-20T06:36:11.762Z,11.31
2022-10-20T06:37:11.749Z,11.34
2022-10-20T06:38:11.743Z,11.32
2022-10-20T06:39:11.729Z,11.38
2022-10-20T06:40:11.672Z,11.32
2022-10-20T06:41:11.649Z,11.35
2022-10-20T06:42:12.332Z,11.29
2022-10-20T06:43:11.595Z,11.39
2022-10-20T06:44:11.569Z,11.39
2022-10-20T06:45:14.388Z,11.34
2022-10-20T06:46:11.527Z,11.44
2022-10-20T06:47:11.501Z,11.43
2022-10-20T06:48:11.479Z,11.35
2022-10-20T06:49:11.466Z,11.41
2022-10-20T06:50:11.435Z,11.43
2022-10-20T06:51:11.408Z,11.47
2022-10-20T06:53:11.364Z,11.49
2022-10-20T06:54:11.370Z,11.57
2022-10-20T06:55:11.315Z,11.59
2022-10-20T06:56:11.300Z,11.50
2022-10-20T06:57:11.305Z,11.53
2022-10-20T06:58:11.247Z,11.56
2022-10-20T06:59:11.236Z,11.56
2022-10-20T07:00:11.203Z,11.54
2022-10-20T07:01:11.289Z,11.59
2022-10-20T07:02:11.209Z,11.56
2022-10-20T07:03:11.125Z,11.61
2022-10-20T07:04:11.112Z,11.70
2022-10-20T07:05:11.085Z,11.74
2022-10-20T07:06:11.060Z,11.67
2022-10-20T07:07:11.065Z,11.71
2022-10-20T07:08:11.017Z,11.71
2022-10-20T07:09:11.058Z,11.72
2022-10-20T07:10:10.975Z,11.65
2022-10-20T07:11:10.948Z,11.71
2022-10-20T07:12:10.919Z,11.68
2022-10-20T07:13:10.900Z,11.72
2022-10-20T07:14:10.889Z,11.67
2022-10-20T07:15:10.858Z,11.68
2022-10-20T07:16:10.830Z,11.71
2022-10-20T07:17:10.827Z,11.71
2022-10-20T07:18:10.812Z,11.68
2022-10-20T07:19:10.777Z,11.75
2022-10-20T07:20:10.764Z,11.68
2022-10-20T07:21:10.720Z,11.83
2022-10-20T07:22:10.695Z,11.71
2022-10-20T07:23:10.675Z,11.77
2022-10-20T07:24:10.657Z,11.70
2022-10-20T07:25:10.629Z,11.71
2022-10-20T07:26:10.600Z,11.87
2022-10-20T07:27:10.599Z,11.83
2022-10-20T07:28:10.553Z,11.80
2022-10-20T07:29:10.542Z,11.78
2022-10-20T07:30:10.510Z,11.86
2022-10-20T07:31:10.497Z,11.83
2022-10-20T07:32:10.464Z,11.90
2022-10-20T07:33:10.441Z,11.96
2022-10-20T07:34:27.477Z,11.89
2022-10-20T07:35:10.399Z,12.02
2022-10-20T07:36:10.376Z,11.99
2022-10-20T07:37:10.411Z,12.02
2022-10-20T07:38:10.330Z,11.93
2022-10-20T07:39:10.322Z,12.02
2022-10-20T07:40:10.282Z,12.13
2022-10-20T07:41:10.260Z,12.11
2022-10-20T07:42:10.236Z,12.23
2022-10-20T07:43:10.218Z,12.30
2022-10-20T07:44:10.193Z,12.24
2022-10-20T07:45:10.173Z,12.16
2022-10-20T07:46:10.158Z,12.33
2022-10-20T07:47:10.131Z,12.41
2022-10-20T07:48:10.108Z,12.39
2022-10-20T07:49:42.981Z,12.39
2022-10-20T07:50:10.084Z,12.54
2022-10-20T07:51:10.104Z,12.45
2022-10-20T07:52:10.019Z,12.48
2022-10-20T07:53:09.992Z,12.48
2022-10-20T07:54:09.970Z,12.48
2022-10-20T07:55:17.979Z,12.52
2022-10-20T07:56:09.929Z,12.51
2022-10-20T07:57:09.912Z,12.59
2022-10-20T07:58:09.883Z,12.56
2022-10-20T07:59:09.868Z,12.52
2022-10-20T08:00:09.846Z,12.41
2022-10-20T08:01:09.826Z,12.52
2022-10-20T08:02:09.893Z,12.52
2022-10-20T08:03:09.786Z,12.56
2022-10-20T08:04:09.766Z,12.63
2022-10-20T08:05:09.725Z,12.75
2022-10-20T08:06:09.711Z,12.75
2022-10-20T08:07:09.682Z,12.88
2022-10-20T08:08:09.660Z,12.84
2022-10-20T08:09:09.638Z,12.88
2022-10-20T08:10:09.629Z,12.82
2022-10-20T08:11:10.493Z,12.87
2022-10-20T08:12:09.574Z,12.89
2022-10-20T08:13:09.550Z,12.93
2022-10-20T08:14:09.542Z,12.88
2022-10-20T08:15:12.041Z,13.02
2022-10-20T08:16:11.529Z,12.81
2022-10-20T08:17:09.471Z,12.87
2022-10-20T08:18:09.449Z,12.84
2022-10-20T08:19:25.043Z,12.88
2022-10-20T08:20:11.038Z,12.85
2022-10-20T08:21:09.397Z,12.99
2022-10-20T08:22:09.363Z,12.89
2022-10-20T08:23:09.347Z,12.88
2022-10-20T08:24:09.322Z,12.84
2022-10-20T08:25:09.295Z,12.85
2022-10-20T08:26:11.378Z,12.82
2022-10-20T08:27:09.260Z,12.85
2022-10-20T08:28:09.231Z,12.84
2022-10-20T08:29:09.207Z,12.92
2022-10-20T08:30:24.655Z,12.82
2022-10-20T08:31:09.169Z,12.85
2022-10-20T08:32:09.167Z,12.85
2022-10-20T08:33:09.118Z,12.92
2022-10-20T08:34:09.109Z,12.85
2022-10-20T08:35:09.094Z,12.85
2022-10-20T08:36:09.086Z,12.87
2022-10-20T08:37:09.097Z,12.84
2022-10-20T08:38:09.013Z,12.96
2022-10-20T08:39:08.991Z,12.96
2022-10-20T08:40:08.994Z,13.00
2022-10-20T08:41:08.968Z,13.09
2022-10-20T08:42:09.699Z,13.11
2022-10-20T08:43:08.905Z,13.18
2022-10-20T08:44:08.890Z,13.25
2022-10-20T08:45:08.894Z,13.24
2022-10-20T08:46:08.906Z,13.15
2022-10-20T08:47:08.864Z,13.15
2022-10-20T08:48:08.824Z,13.22
2022-10-20T08:49:08.792Z,13.04
2022-10-20T08:50:08.779Z,13.21
2022-10-20T08:51:08.742Z,13.09
2022-10-20T08:52:08.738Z,13.15
2022-10-20T08:53:08.695Z,13.07
2022-10-20T08:54:08.672Z,13.20
2022-10-20T08:55:08.755Z,13.09
2022-10-20T08:56:08.643Z,13.04
2022-10-20T08:57:08.613Z,13.04
2022-10-20T08:58:08.595Z,13.12
2022-10-20T08:59:08.570Z,13.09
2022-10-20T09:00:09.183Z,13.17
2022-10-20T09:01:08.530Z,13.12
2022-10-20T09:02:08.578Z,13.33
2022-10-20T09:03:08.515Z,13.40
2022-10-20T09:04:08.467Z,13.46
2022-10-20T09:05:08.446Z,13.59
2022-10-20T09:06:08.423Z,13.81
2022-10-20T09:07:08.407Z,13.96
2022-10-20T09:08:08.442Z,14.01
2022-10-20T09:09:08.484Z,13.96
2022-10-20T09:10:08.343Z,13.87
2022-10-20T09:11:08.319Z,13.91
2022-10-20T09:12:08.297Z,13.79
2022-10-20T09:13:08.281Z,13.94
2022-10-20T09:14:08.323Z,14.06
2022-10-20T09:15:08.245Z,14.04
2022-10-20T09:16:08.218Z,14.13
2022-10-20T09:17:11.408Z,14.13
2022-10-20T09:18:08.200Z,14.31
2022-10-20T09:19:08.164Z,14.49
2022-10-20T09:20:08.139Z,14.56
2022-10-20T09:21:08.137Z,14.87
2022-10-20T09:22:08.094Z,15.13
2022-10-20T09:23:28.308Z,15.13
2022-10-20T09:24:08.092Z,15.02
2022-10-20T09:25:08.036Z,14.99
2022-10-20T09:26:08.038Z,15.17
2022-10-20T09:27:08.000Z,15.20
2022-10-20T09:28:08.009Z,15.09
2022-10-20T09:29:13.484Z,14.83
2022-10-20T09:30:07.937Z,14.91
2022-10-20T09:31:07.916Z,15.06
2022-10-20T09:32:33.966Z,15.30
2022-10-20T09:33:07.880Z,15.46
2022-10-20T09:34:08.358Z,15.52
2022-10-20T09:35:07.860Z,15.43
2022-10-20T09:36:07.823Z,15.56
2022-10-20T09:37:07.827Z,15.76
2022-10-20T09:38:07.813Z,15.51
2022-10-20T09:39:07.769Z,15.31
2022-10-20T09:40:07.760Z,15.39
2022-10-20T09:41:07.764Z,15.27
2022-10-20T09:42:07.718Z,15.15
2022-10-20T09:43:07.695Z,15.19
2022-10-20T09:44:07.687Z,15.05
2022-10-20T09:45:07.654Z,14.91
2022-10-20T09:46:07.640Z,14.95
2022-10-20T09:47:07.619Z,15.03
2022-10-20T09:48:07.722Z,15.02
2022-10-20T09:49:07.597Z,15.03
2022-10-20T09:50:07.562Z,15.05
2022-10-20T09:51:07.593Z,14.98
2022-10-20T09:52:07.527Z,15.01
2022-10-20T09:53:07.513Z,15.12
2022-10-20T09:54:07.487Z,15.20
2022-10-20T09:55:07.464Z,15.12
2022-10-20T09:56:07.472Z,14.90
2022-10-20T09:57:07.456Z,14.83
2022-10-20T09:58:07.404Z,14.84
2022-10-20T09:59:07.406Z,14.75
2022-10-20T10:00:25.256Z,14.81
2022-10-20T10:01:07.373Z,14.68
2022-10-20T10:02:07.370Z,14.87
2022-10-20T10:03:07.314Z,15.20
2022-10-20T10:04:10.932Z,15.52
2022-10-20T10:05:07.298Z,15.82
2022-10-20T10:06:07.274Z,16.23
2022-10-20T10:07:07.249Z,16.55
2022-10-20T10:08:07.264Z,16.74
2022-10-20T10:09:07.247Z,16.71
2022-10-20T10:10:08.547Z,16.78
2022-10-20T10:11:07.180Z,16.78
2022-10-20T10:12:07.151Z,16.59
2022-10-20T10:14:07.113Z,16.50
2022-10-20T10:15:07.129Z,16.20
2022-10-20T10:16:07.170Z,16.07
2022-10-20T10:18:07.092Z,15.39
2022-10-20T10:19:07.068Z,15.13
2022-10-20T10:20:07.015Z,15.17
2022-10-20T10:21:06.988Z,15.06
2022-10-20T10:22:06.972Z,15.11
2022-10-20T10:23:06.965Z,15.09
2022-10-20T10:24:06.942Z,15.13
2022-10-20T10:26:06.979Z,15.28
2022-10-20T10:27:06.885Z,15.36
2022-10-20T10:28:06.896Z,15.42
2022-10-20T10:29:06.853Z,15.31
2022-10-20T10:30:06.832Z,15.26
2022-10-20T10:31:06.811Z,15.33
2022-10-20T10:32:06.851Z,15.21
2022-10-20T10:33:06.763Z,15.20
2022-10-20T10:34:06.753Z,15.17
2022-10-20T10:35:06.741Z,15.09
2022-10-20T10:36:06.712Z,15.06
2022-10-20T10:37:06.739Z,15.13
2022-10-20T10:38:06.680Z,15.09
2022-10-20T10:39:06.666Z,15.06
2022-10-20T10:40:06.642Z,15.09
2022-10-20T10:41:06.621Z,15.19
2022-10-20T10:42:06.603Z,15.20
2022-10-20T10:43:06.583Z,15.17
2022-10-20T10:44:06.564Z,15.08
2022-10-20T10:45:06.580Z,14.94
2022-10-20T10:46:06.526Z,14.94
2022-10-20T10:47:06.509Z,15.01
2022-10-20T10:48:06.486Z,15.05
2022-10-20T10:49:06.464Z,15.13
2022-10-20T10:50:06.454Z,15.06
2022-10-20T10:51:06.438Z,14.91
2022-10-20T10:52:06.414Z,14.84
2022-10-20T10:53:06.428Z,14.83
2022-10-20T10:54:11.613Z,14.81
2022-10-20T10:55:06.369Z,14.90
2022-10-20T10:56:06.402Z,14.84
2022-10-20T10:57:08.047Z,14.87
2022-10-20T10:58:06.313Z,14.72
2022-10-20T10:59:06.288Z,14.84
2022-10-20T11:00:06.296Z,14.83
2022-10-20T11:01:06.306Z,14.75
2022-10-20T11:02:06.223Z,14.75
2022-10-20T11:03:06.194Z,14.83
2022-10-20T11:04:06.176Z,14.86
2022-10-20T11:05:06.224Z,14.75
2022-10-20T11:06:06.153Z,14.90
2022-10-20T11:07:06.114Z,14.95
2022-10-20T11:08:06.096Z,14.93
2022-10-20T11:09:06.137Z,15.08
2022-10-20T11:10:06.061Z,15.02
2022-10-20T11:11:06.038Z,15.15
2022-10-20T11:12:06.051Z,15.19
2022-10-20T11:13:06.038Z,15.30
2022-10-20T11:14:06.025Z,15.45
2022-10-20T11:15:05.958Z,15.46
2022-10-20T11:16:05.938Z,15.51
2022-10-20T11:17:05.915Z,15.42
2022-10-20T11:18:05.907Z,15.59
2022-10-20T11:19:05.884Z,15.51
2022-10-20T11:20:05.946Z,15.51
2022-10-20T11:21:05.841Z,15.61
2022-10-20T11:22:07.629Z,15.49
2022-10-20T11:23:05.825Z,15.74
2022-10-20T11:24:05.796Z,15.82
2022-10-20T11:25:05.792Z,15.86
2022-10-20T11:26:05.744Z,15.82
2022-10-20T11:27:05.778Z,15.81
2022-10-20T11:28:05.708Z,15.75
2022-10-20T11:29:05.685Z,15.72
2022-10-20T11:30:05.699Z,15.60
2022-10-20T11:31:05.656Z,15.51
2022-10-20T11:32:05.634Z,15.61
2022-10-20T11:33:05.621Z,15.70
2022-10-20T11:34:05.597Z,15.76
2022-10-20T11:35:05.579Z,15.79
2022-10-20T11:36:05.564Z,15.85
2022-10-20T11:37:05.534Z,15.88
2022-10-20T11:38:05.530Z,15.86
2022-10-20T11:39:05.506Z,16.03
2022-10-20T11:40:07.824Z,16.20
2022-10-20T11:41:05.460Z,16.56
2022-10-20T11:42:05.447Z,16.68
2022-10-20T11:43:08.814Z,16.59
2022-10-20T11:44:05.413Z,16.58
2022-10-20T11:45:05.395Z,16.52
2022-10-20T11:46:05.387Z,16.48
2022-10-20T11:47:05.363Z,16.42
2022-10-20T11:48:05.346Z,16.45
2022-10-20T11:49:05.324Z,16.30
2022-10-20T11:50:05.317Z,16.31
2022-10-20T11:52:05.277Z,16.37
2022-10-20T11:53:05.251Z,16.45
2022-10-20T11:54:05.236Z,16.45
2022-10-20T11:55:05.234Z,16.37
2022-10-20T11:56:05.207Z,16.27
2022-10-20T11:57:05.204Z,16.34
2022-10-20T11:58:05.169Z,16.25
2022-10-20T11:59:05.216Z,16.20
2022-10-20T12:00:05.198Z,16.14
2022-10-20T12:01:05.149Z,16.15
2022-10-20T12:02:05.151Z,16.16
2022-10-20T12:03:05.092Z,16.11
2022-10-20T12:04:05.095Z,16.15
2022-10-20T12:05:05.047Z,16.12
2022-10-20T12:07:05.002Z,16.00
2022-10-20T12:08:28.366Z,15.92
2022-10-20T12:09:05.020Z,15.88
2022-10-20T12:10:04.955Z,15.89
2022-10-20T12:11:04.943Z,15.76
2022-10-20T12:12:04.917Z,15.75
2022-10-20T12:13:04.897Z,15.75
2022-10-20T12:14:04.878Z,15.74
2022-10-20T12:15:04.864Z,15.74
2022-10-20T12:16:04.843Z,15.70
2022-10-20T12:17:04.823Z,15.66
2022-10-20T12:18:04.805Z,15.63
2022-10-20T12:19:04.786Z,15.66
2022-10-20T12:20:04.790Z,15.64
2022-10-20T12:21:04.754Z,15.66
2022-10-20T12:22:04.721Z,15.68
2022-10-20T12:23:04.705Z,15.61
2022-10-20T12:24:04.698Z,15.54
2022-10-20T12:25:04.669Z,15.56
2022-10-20T12:26:04.643Z,15.56
2022-10-20T12:27:04.629Z,15.61
2022-10-20T12:28:04.614Z,15.52
2022-10-20T12:29:04.586Z,15.64
2022-10-20T12:30:04.569Z,15.63
2022-10-20T12:31:04.556Z,15.75
2022-10-20T12:32:04.529Z,15.70
2022-10-20T12:33:04.521Z,15.61
2022-10-20T12:34:04.506Z,15.54
2022-10-20T12:35:04.492Z,15.49
2022-10-20T12:36:04.462Z,15.51
2022-10-20T12:37:04.440Z,15.54
2022-10-20T12:38:04.457Z,15.52
2022-10-20T12:39:04.397Z,15.51
2022-10-20T12:40:04.372Z,15.49
2022-10-20T12:41:04.350Z,15.48
2022-10-20T12:42:04.331Z,15.54
2022-10-20T12:43:04.327Z,15.56
2022-10-20T12:44:04.301Z,15.56
2022-10-20T12:45:04.270Z,15.49
2022-10-20T12:46:04.269Z,15.42
2022-10-20T12:47:04.233Z,15.52
2022-10-20T12:48:04.221Z,15.49
2022-10-20T12:49:06.679Z,15.49
2022-10-20T12:50:04.182Z,15.56
2022-10-20T12:51:04.163Z,15.48
2022-10-20T12:52:04.131Z,15.42
2022-10-20T12:53:04.123Z,15.39
2022-10-20T12:54:04.119Z,15.45
2022-10-20T12:55:04.096Z,15.41
2022-10-20T12:56:04.049Z,15.35
2022-10-20T12:57:04.086Z,15.31
2022-10-20T12:58:04.021Z,15.28
2022-10-20T12:59:04.023Z,15.31
2022-10-20T13:00:03.971Z,15.28
2022-10-20T13:01:04.036Z,15.20
2022-10-20T13:02:03.933Z,15.31